Time;durP1;ratioP1;P1;durP2;ratioP2;P2;SDS_P1;SDS_P2;PMS_P1;PMS_P2;Temp;Humidity;BMP_temperature;BMP_pressure;BME280_temperature;BME280_humidity;BME280_pressure;Samples;Min_cycle;Max_cycle;Signal;HPM_P1;HPM_P2
2023/12/09 00:01:23;;;;;;;61.13;25.42;;;8.40;94.50;;;;;;6221222;23;20008;-83
2023/12/09 00:03:49;;;;;;;59.50;25.00;;;8.40;94.50;;;;;;6221438;23;20027;-83
2023/12/09 00:06:15;;;;;;;51.30;25.80;;;8.40;94.50;;;;;;6221065;23;20090;-83
2023/12/09 00:08:41;;;;;;;59.47;24.98;;;8.40;94.50;;;;;;6220535;23;20023;-83
2023/12/09 00:11:07;;;;;;;53.60;23.08;;;8.50;94.50;;;;;;6196138;23;20516;-83
2023/12/09 00:13:32;;;;;;;50.80;23.23;;;8.40;94.50;;;;;;6221609;23;20012;-83
2023/12/09 00:15:59;;;;;;;56.10;23.30;;;8.40;94.50;;;;;;6225916;23;20042;-83
2023/12/09 00:18:25;;;;;;;56.58;23.23;;;8.40;94.50;;;;;;6203152;23;20070;-83
2023/12/09 00:20:50;;;;;;;55.42;22.40;;;8.40;94.50;;;;;;6204856;23;20063;-83
2023/12/09 00:23:16;;;;;;;55.83;24.23;;;8.30;94.40;;;;;;6207284;23;20016;-83
2023/12/09 00:25:42;;;;;;;59.22;24.20;;;8.40;94.50;;;;;;6206409;23;20012;-83
2023/12/09 00:28:07;;;;;;;46.97;22.48;;;8.40;94.50;;;;;;6201193;23;20020;-83
2023/12/09 00:30:33;;;;;;;56.78;24.30;;;8.30;94.40;;;;;;6202107;23;20468;-83
2023/12/09 00:32:59;;;;;;;62.40;23.85;;;8.30;94.40;;;;;;6203163;23;20440;-83
2023/12/09 00:35:24;;;;;;;52.63;22.02;;;8.40;94.40;;;;;;6229490;23;20087;-83
2023/12/09 00:37:50;;;;;;;55.63;22.67;;;8.40;94.40;;;;;;6197908;23;20101;-83
2023/12/09 00:40:16;;;;;;;46.30;21.42;;;8.40;94.40;;;;;;6222157;23;20012;-83
2023/12/09 00:42:42;;;;;;;47.08;21.17;;;8.40;94.40;;;;;;6222565;23;20019;-83
2023/12/09 00:45:08;;;;;;;52.30;22.70;;;8.40;94.40;;;;;;6222995;23;20028;-83
2023/12/09 00:47:33;;;;;;;52.65;24.17;;;8.40;94.40;;;;;;6222154;23;20016;-83
2023/12/09 00:49:59;;;;;;;58.30;24.08;;;8.40;94.40;;;;;;6196063;23;20297;-83
2023/12/09 00:52:24;;;;;;;62.60;24.45;;;8.40;94.40;;;;;;6197345;23;20039;-84
2023/12/09 00:54:50;;;;;;;55.58;24.30;;;8.40;94.40;;;;;;6219794;23;20449;-84
2023/12/09 00:57:16;;;;;;;56.70;22.85;;;8.40;94.40;;;;;;6220091;23;20026;-84
2023/12/09 00:59:41;;;;;;;55.85;23.10;;;8.30;94.40;;;;;;6194327;23;20012;-84
2023/12/09 01:02:07;;;;;;;62.92;24.90;;;8.80;94.50;;;;;;6221053;23;20107;-84
2023/12/09 01:04:32;;;;;;;46.30;22.05;;;8.40;94.40;;;;;;6247363;23;20052;-84
2023/12/09 01:06:58;;;;;;;43.28;21.08;;;8.40;94.40;;;;;;6222639;23;20024;-84
2023/12/09 01:09:24;;;;;;;52.88;22.65;;;8.40;94.30;;;;;;6222598;23;20016;-84
2023/12/09 01:11:50;;;;;;;44.50;21.13;;;8.40;94.30;;;;;;6223882;23;20020;-84
2023/12/09 01:14:15;;;;;;;50.30;20.88;;;8.40;94.30;;;;;;6199192;23;20012;-84
2023/12/09 01:16:41;;;;;;;41.03;20.85;;;8.40;94.30;;;;;;6223981;23;20344;-84
2023/12/09 01:19:07;;;;;;;46.42;20.83;;;8.40;94.30;;;;;;6223733;23;20096;-84
2023/12/09 01:21:32;;;;;;;44.88;21.40;;;8.40;94.30;;;;;;6222831;23;20425;-84
2023/12/09 01:23:58;;;;;;;48.65;21.23;;;8.40;94.30;;;;;;6198231;23;20024;-84
2023/12/09 01:26:24;;;;;;;44.40;21.45;;;8.40;94.20;;;;;;6223459;23;20034;-85
2023/12/09 01:28:49;;;;;;;48.65;21.40;;;8.40;94.20;;;;;;6224787;23;20081;-84
2023/12/09 01:31:15;;;;;;;47.50;21.17;;;8.40;94.20;;;;;;6225670;23;20004;-84
2023/12/09 01:33:41;;;;;;;45.58;20.52;;;8.40;94.20;;;;;;6226280;23;20008;-84
2023/12/09 01:36:07;;;;;;;51.75;22.63;;;8.30;94.20;;;;;;6225524;23;20425;-84
2023/12/09 01:38:32;;;;;;;47.30;20.35;;;8.40;94.20;;;;;;6224202;23;20036;-84
2023/12/09 01:40:58;;;;;;;46.72;20.98;;;8.30;94.10;;;;;;6225542;23;20344;-84
2023/12/09 01:43:23;;;;;;;39.80;20.38;;;8.30;94.10;;;;;;6224876;23;20023;-84
2023/12/09 01:45:52;;;;;;;45.90;21.17;;;8.30;94.10;;;;;;6250597;23;20113;-83
2023/12/09 01:48:19;;;;;;;47.60;20.88;;;8.30;94.10;;;;;;6251250;23;20082;-83
2023/12/09 01:50:45;;;;;;;42.00;20.38;;;8.30;94.10;;;;;;6223396;23;20031;-83
2023/12/09 01:53:11;;;;;;;47.83;21.15;;;8.30;94.10;;;;;;6223246;23;20012;-83
2023/12/09 01:55:38;;;;;;;45.33;20.10;;;8.30;94.10;;;;;;6197616;23;20016;-83
2023/12/09 01:58:04;;;;;;;46.97;20.10;;;8.30;94.10;;;;;;6221083;23;20008;-83
2023/12/09 02:00:30;;;;;;;47.70;19.85;;;8.30;94.10;;;;;;6220576;23;20118;-83
2023/12/09 02:02:56;;;;;;;48.28;20.48;;;8.30;94.10;;;;;;6219162;23;20017;-82
2023/12/09 02:05:22;;;;;;;36.72;18.95;;;8.30;94.10;;;;;;6194562;23;20027;-83
2023/12/09 02:07:48;;;;;;;37.10;19.10;;;8.30;94.10;;;;;;6193851;23;20072;-83
2023/12/09 02:10:14;;;;;;;45.17;20.05;;;8.30;94.10;;;;;;6199136;23;20543;-83
2023/12/09 02:12:52;;;;;;;44.50;20.05;;;8.30;94.10;;;;;;6224737;23;20016;-83
2023/12/09 02:15:31;;;;;;;43.70;19.83;;;8.40;94.10;;;;;;6199678;23;20008;-83
2023/12/09 02:18:01;;;;;;;42.13;20.20;;;8.30;94.10;;;;;;6224823;23;20012;-83
2023/12/09 02:20:28;;;;;;;45.60;19.48;;;8.30;94.10;;;;;;6224544;23;20200;-83
2023/12/09 02:23:03;;;;;;;39.35;18.58;;;8.30;94.00;;;;;;6198384;23;20049;-83
2023/12/09 02:25:28;;;;;;;43.95;19.70;;;8.30;94.10;;;;;;6224649;23;20019;-83
2023/12/09 02:27:59;;;;;;;40.75;17.13;;;8.30;94.00;;;;;;6227806;23;20030;-83
2023/12/09 02:30:44;;;;;;;45.53;19.65;;;8.30;94.00;;;;;;6203751;23;20337;-82
2023/12/09 02:33:11;;;;;;;39.88;19.17;;;8.30;94.00;;;;;;6204603;23;20012;-82
2023/12/09 02:35:40;;;;;;;37.90;18.83;;;8.30;94.00;;;;;;6223346;23;20034;-83
2023/12/09 02:38:06;;;;;;;38.63;18.60;;;8.50;94.00;;;;;;6199134;23;20070;-83
2023/12/09 02:40:33;;;;;;;34.72;16.98;;;8.30;93.90;;;;;;6198988;23;20048;-83
2023/12/09 02:42:59;;;;;;;43.70;19.33;;;8.20;93.90;;;;;;6223798;23;20016;-83
2023/12/09 02:45:25;;;;;;;46.17;18.13;;;8.20;93.80;;;;;;6224208;23;20012;-83
2023/12/09 02:47:50;;;;;;;45.83;19.52;;;8.20;93.80;;;;;;6223840;23;20016;-83
2023/12/09 02:50:16;;;;;;;43.17;19.52;;;8.20;93.80;;;;;;6199182;23;20027;-83
2023/12/09 02:52:42;;;;;;;52.90;19.30;;;8.20;93.80;;;;;;6224125;23;20054;-83
2023/12/09 02:55:08;;;;;;;43.85;18.67;;;8.10;93.70;;;;;;6224495;23;20414;-83
2023/12/09 02:57:34;;;;;;;43.25;17.52;;;8.10;93.70;;;;;;6250632;23;20035;-83
2023/12/09 03:00:00;;;;;;;33.05;16.63;;;8.10;93.70;;;;;;6225816;23;20016;-83
2023/12/09 03:02:25;;;;;;;43.30;17.23;;;8.10;93.70;;;;;;6225081;23;20141;-83
2023/12/09 03:04:51;;;;;;;44.67;16.77;;;8.10;93.70;;;;;;6254559;23;20485;-83
2023/12/09 03:07:20;;;;;;;40.63;18.10;;;8.00;93.60;;;;;;6226103;23;20091;-83
2023/12/09 03:09:49;;;;;;;36.25;16.73;;;8.00;93.60;;;;;;6224093;23;20016;-83
2023/12/09 03:12:14;;;;;;;44.58;18.25;;;8.00;93.60;;;;;;6225803;23;20035;-83
2023/12/09 03:14:40;;;;;;;38.30;16.73;;;8.00;93.60;;;;;;6224438;23;20045;-83
2023/12/09 03:17:06;;;;;;;43.00;18.77;;;8.00;93.60;;;;;;6227081;23;20012;-82
2023/12/09 03:19:31;;;;;;;38.72;17.40;;;8.00;93.60;;;;;;6201324;23;20016;-83
2023/12/09 03:21:58;;;;;;;34.88;16.88;;;7.90;93.60;;;;;;6201840;23;20016;-83
2023/12/09 03:24:24;;;;;;;38.45;17.05;;;7.90;93.60;;;;;;6226874;23;20448;-83
2023/12/09 03:26:53;;;;;;;41.05;17.98;;;7.90;93.60;;;;;;6225937;23;20012;-83
2023/12/09 03:29:19;;;;;;;41.33;17.17;;;7.90;93.60;;;;;;6198144;23;20087;-83
2023/12/09 03:31:45;;;;;;;40.92;16.77;;;7.90;93.60;;;;;;6197215;23;20158;-83
2023/12/09 03:34:12;;;;;;;42.45;17.58;;;7.90;93.60;;;;;;6218330;23;20444;-83
2023/12/09 03:36:37;;;;;;;46.90;17.10;;;8.00;93.70;;;;;;6201468;23;20016;-83
2023/12/09 03:39:03;;;;;;;37.83;15.30;;;7.90;93.60;;;;;;6200312;23;20229;-83
2023/12/09 03:41:29;;;;;;;34.83;16.67;;;7.90;93.70;;;;;;6198355;23;20306;-83
2023/12/09 03:43:55;;;;;;;44.88;16.90;;;7.90;93.70;;;;;;6223586;23;20012;-83
2023/12/09 03:46:20;;;;;;;33.45;17.15;;;7.90;93.70;;;;;;6199367;23;20035;-83
2023/12/09 03:48:46;;;;;;;43.95;17.17;;;7.90;93.90;;;;;;6197306;23;20012;-83
2023/12/09 03:51:12;;;;;;;35.15;16.92;;;7.90;93.70;;;;;;6198844;23;20319;-83
2023/12/09 03:53:37;;;;;;;41.67;15.85;;;8.10;93.80;;;;;;6199110;23;20058;-83
2023/12/09 03:56:03;;;;;;;38.53;15.23;;;8.00;93.80;;;;;;6226353;23;20015;-82
2023/12/09 03:58:29;;;;;;;37.42;15.93;;;8.00;93.80;;;;;;6221246;23;20476;-82
2023/12/09 04:00:54;;;;;;;45.10;15.95;;;8.00;93.80;;;;;;6221166;23;20067;-82
2023/12/09 04:03:20;;;;;;;40.47;15.43;;;8.00;93.80;;;;;;6223070;23;20016;-82
2023/12/09 04:05:46;;;;;;;34.03;14.68;;;8.00;93.80;;;;;;6225175;23;20020;-82
2023/12/09 04:08:11;;;;;;;37.70;14.75;;;8.00;93.80;;;;;;6200617;23;20035;-83
2023/12/09 04:10:37;;;;;;;35.83;14.50;;;8.00;93.80;;;;;;6222552;23;20023;-83
2023/12/09 04:13:02;;;;;;;38.45;15.35;;;8.00;93.80;;;;;;6221683;23;20012;-83
2023/12/09 04:15:28;;;;;;;34.05;14.10;;;8.50;94.00;;;;;;6221011;23;20023;-82
2023/12/09 04:17:54;;;;;;;36.53;13.98;;;8.00;93.80;;;;;;6220464;23;20012;-82
2023/12/09 04:20:20;;;;;;;36.63;13.88;;;8.20;93.90;;;;;;6221510;23;20005;-82
2023/12/09 04:22:47;;;;;;;33.72;14.45;;;8.30;93.90;;;;;;6221667;23;20093;-82
2023/12/09 04:25:12;;;;;;;39.25;14.65;;;8.00;93.80;;;;;;6221186;23;20016;-82
2023/12/09 04:27:39;;;;;;;40.63;15.10;;;8.00;93.80;;;;;;6221722;23;20399;-82
2023/12/09 04:30:05;;;;;;;33.58;13.73;;;8.10;93.80;;;;;;6196523;23;20012;-82
2023/12/09 04:32:31;;;;;;;35.03;14.10;;;8.10;93.80;;;;;;6196327;23;20115;-82
2023/12/09 04:34:58;;;;;;;36.55;15.20;;;8.10;93.80;;;;;;6222105;23;20352;-84
2023/12/09 04:37:24;;;;;;;33.10;13.27;;;8.10;93.80;;;;;;6198420;23;20364;-83
2023/12/09 04:39:50;;;;;;;36.33;13.95;;;8.10;93.80;;;;;;6197257;23;20011;-83
2023/12/09 04:42:16;;;;;;;32.92;13.63;;;8.10;93.80;;;;;;6197528;23;20016;-83
2023/12/09 04:44:42;;;;;;;36.28;14.73;;;8.10;93.80;;;;;;6198078;23;20035;-83
2023/12/09 04:47:08;;;;;;;31.70;13.95;;;8.10;93.80;;;;;;6222024;23;20008;-84
2023/12/09 04:49:33;;;;;;;36.88;14.88;;;8.10;93.80;;;;;;6223632;23;20074;-83
2023/12/09 04:51:59;;;;;;;26.30;12.75;;;8.50;93.90;;;;;;6200088;23;20012;-83
2023/12/09 04:54:25;;;;;;;32.65;12.43;;;8.10;93.80;;;;;;6227156;23;20023;-83
2023/12/09 04:56:50;;;;;;;32.85;13.32;;;8.10;93.80;;;;;;6230966;23;20010;-83
2023/12/09 04:59:16;;;;;;;33.17;12.77;;;8.10;93.90;;;;;;6226828;23;20012;-83
2023/12/09 05:01:42;;;;;;;39.10;14.00;;;8.10;93.80;;;;;;6200083;23;20062;-83
2023/12/09 05:04:08;;;;;;;32.63;13.18;;;8.10;93.70;;;;;;6225657;23;20571;-82
2023/12/09 05:06:34;;;;;;;36.13;12.07;;;8.20;93.80;;;;;;6199519;23;20023;-83
2023/12/09 05:09:00;;;;;;;34.72;13.57;;;8.10;93.70;;;;;;6223892;23;20012;-83
2023/12/09 05:11:25;;;;;;;37.55;13.32;;;8.10;93.70;;;;;;6198877;23;20012;-83
2023/12/09 05:13:51;;;;;;;28.67;14.23;;;8.10;93.70;;;;;;6225624;23;20023;-83
2023/12/09 05:16:16;;;;;;;31.73;12.40;;;8.10;93.70;;;;;;6198960;23;20089;-83
2023/12/09 05:18:42;;;;;;;35.55;14.45;;;8.10;93.70;;;;;;6199535;23;20012;-83
2023/12/09 05:21:08;;;;;;;27.63;12.50;;;8.10;93.70;;;;;;6224338;23;20166;-83
2023/12/09 05:23:34;;;;;;;34.47;13.57;;;8.10;93.60;;;;;;6224470;23;20492;-84
2023/12/09 05:26:00;;;;;;;30.05;12.48;;;8.10;93.60;;;;;;6226584;23;20016;-83
2023/12/09 05:28:26;;;;;;;28.17;12.63;;;8.10;93.60;;;;;;6201248;23;20015;-83
2023/12/09 05:30:52;;;;;;;30.38;12.90;;;8.10;93.60;;;;;;6203623;23;20083;-83
2023/12/09 05:33:18;;;;;;;29.23;11.73;;;8.10;93.80;;;;;;6255374;23;20008;-83
2023/12/09 05:35:44;;;;;;;34.20;13.35;;;8.10;93.60;;;;;;6200658;23;20374;-83
2023/12/09 05:38:09;;;;;;;33.70;11.70;;;8.10;93.60;;;;;;6225826;23;20008;-83
2023/12/09 05:40:35;;;;;;;34.22;12.43;;;8.20;93.60;;;;;;6198804;23;20013;-83
2023/12/09 05:43:00;;;;;;;34.63;13.27;;;8.10;93.60;;;;;;6222591;23;20086;-83
2023/12/09 05:45:26;;;;;;;35.15;12.40;;;8.10;93.50;;;;;;6222947;23;20016;-83
2023/12/09 05:47:51;;;;;;;32.42;12.18;;;8.10;93.50;;;;;;6221151;23;20016;-83
2023/12/09 05:50:17;;;;;;;31.85;11.75;;;8.10;93.50;;;;;;6219933;23;20015;-83
2023/12/09 05:52:43;;;;;;;25.83;12.07;;;8.10;93.50;;;;;;6220516;23;20054;-83
2023/12/09 05:55:08;;;;;;;29.58;12.77;;;8.10;93.40;;;;;;6224016;23;20456;-83
2023/12/09 05:57:34;;;;;;;29.75;11.55;;;8.10;93.40;;;;;;6222823;23;20047;-83
2023/12/09 06:00:00;;;;;;;26.02;12.20;;;8.10;93.40;;;;;;6218766;23;20503;-83
2023/12/09 06:02:25;;;;;;;24.70;11.38;;;8.10;93.40;;;;;;6221021;23;20019;-83
2023/12/09 06:04:51;;;;;;;27.15;11.80;;;8.10;93.40;;;;;;6221255;23;20512;-83
2023/12/09 06:07:17;;;;;;;34.42;11.68;;;8.00;93.30;;;;;;6195892;23;20175;-83
2023/12/09 06:09:43;;;;;;;37.55;12.45;;;8.00;93.30;;;;;;6222588;23;20008;-83
2023/12/09 06:12:09;;;;;;;31.98;12.55;;;8.00;93.30;;;;;;6197340;23;20068;-83
2023/12/09 06:14:35;;;;;;;37.67;13.23;;;8.00;93.30;;;;;;6221479;23;20023;-83
2023/12/09 06:17:00;;;;;;;28.50;12.07;;;8.00;93.20;;;;;;6222142;23;20437;-83
2023/12/09 06:19:26;;;;;;;34.08;12.38;;;8.00;93.20;;;;;;6223811;23;20061;-83
2023/12/09 06:21:51;;;;;;;27.67;11.57;;;8.00;93.20;;;;;;6225629;23;20337;-83
2023/12/09 06:24:17;;;;;;;28.65;11.30;;;8.50;93.30;;;;;;6225570;23;20016;-83
2023/12/09 06:26:44;;;;;;;28.38;12.15;;;8.00;93.20;;;;;;6197767;23;20357;-83
2023/12/09 06:29:13;;;;;;;30.10;12.30;;;8.00;93.10;;;;;;6222750;23;20016;-83
2023/12/09 06:31:39;;;;;;;28.45;10.70;;;7.90;93.10;;;;;;6197804;23;20020;-82
2023/12/09 06:34:04;;;;;;;32.17;10.55;;;7.90;93.10;;;;;;6198791;23;20009;-82
2023/12/09 06:36:30;;;;;;;37.08;12.55;;;7.90;93.00;;;;;;6222437;23;20434;-83
2023/12/09 06:38:56;;;;;;;29.45;11.23;;;7.90;93.00;;;;;;6223358;23;20464;-83
2023/12/09 06:41:21;;;;;;;26.60;11.32;;;7.90;93.00;;;;;;6222087;23;20012;-83
2023/12/09 06:43:47;;;;;;;32.05;10.68;;;7.90;93.00;;;;;;6222059;23;20012;-83
2023/12/09 06:46:12;;;;;;;27.70;11.23;;;7.90;93.00;;;;;;6197032;23;20022;-83
2023/12/09 06:48:38;;;;;;;30.15;9.95;;;7.90;93.00;;;;;;6222700;23;20449;-83
2023/12/09 06:51:07;;;;;;;26.35;9.90;;;7.90;93.00;;;;;;6223455;23;20402;-83
2023/12/09 06:53:32;;;;;;;26.25;9.52;;;7.90;93.00;;;;;;6222700;23;20013;-83
2023/12/09 06:55:58;;;;;;;28.65;10.80;;;7.90;93.00;;;;;;6198069;23;20111;-83
2023/12/09 06:58:24;;;;;;;26.58;9.52;;;7.90;93.00;;;;;;6223612;23;20044;-83
2023/12/09 07:00:50;;;;;;;27.77;9.98;;;7.90;92.90;;;;;;6225263;23;20781;-83
2023/12/09 07:03:16;;;;;;;19.92;8.80;;;7.90;92.90;;;;;;6198475;23;20091;-84
2023/12/09 07:05:41;;;;;;;24.35;9.55;;;7.90;92.90;;;;;;6199149;23;20452;-83
2023/12/09 07:08:10;;;;;;;26.23;9.43;;;7.90;92.90;;;;;;6199476;23;20022;-82
2023/12/09 07:10:36;;;;;;;27.90;9.15;;;7.90;92.90;;;;;;6225029;23;20022;-83
2023/12/09 07:13:01;;;;;;;29.25;9.20;;;7.90;92.90;;;;;;6225705;23;20016;-82
2023/12/09 07:15:27;;;;;;;24.77;8.27;;;7.90;92.90;;;;;;6232770;23;20018;-83
2023/12/09 07:17:53;;;;;;;27.38;9.90;;;7.80;92.90;;;;;;6233283;23;20016;-83
2023/12/09 07:20:18;;;;;;;23.15;8.65;;;7.90;92.90;;;;;;6234435;23;20012;-83
2023/12/09 07:22:44;;;;;;;28.90;10.13;;;7.80;92.90;;;;;;6235204;23;20013;-82
2023/12/09 07:25:10;;;;;;;23.00;8.27;;;7.90;92.90;;;;;;6233793;23;20016;-83
2023/12/09 07:27:35;;;;;;;20.63;7.93;;;7.90;92.90;;;;;;6201662;23;20019;-83
2023/12/09 07:30:01;;;;;;;26.23;8.50;;;7.90;92.80;;;;;;6223298;23;20009;-83
2023/12/09 07:32:27;;;;;;;28.85;8.57;;;7.90;92.80;;;;;;6221868;23;20014;-83
2023/12/09 07:34:52;;;;;;;25.83;9.15;;;7.90;92.80;;;;;;6221654;23;20018;-83
2023/12/09 07:37:18;;;;;;;26.38;9.23;;;7.90;92.80;;;;;;6221949;23;20022;-83
2023/12/09 07:39:43;;;;;;;24.63;9.13;;;8.40;92.90;;;;;;6196726;23;20020;-83
2023/12/09 07:42:09;;;;;;;27.33;10.10;;;7.80;92.80;;;;;;6197865;23;20312;-83
2023/12/09 07:44:35;;;;;;;29.17;10.73;;;7.80;92.70;;;;;;6226285;23;20012;-83
2023/12/09 07:47:01;;;;;;;25.92;8.57;;;8.00;92.80;;;;;;6226101;23;20031;-83
2023/12/09 07:49:27;;;;;;;24.60;9.18;;;7.80;92.70;;;;;;6199270;23;20083;-84
2023/12/09 07:51:53;;;;;;;26.75;8.05;;;7.80;92.60;;;;;;6200024;23;20087;-83
2023/12/09 07:54:22;;;;;;;26.58;9.52;;;7.80;92.60;;;;;;6225673;23;20066;-83
2023/12/09 07:56:47;;;;;;;25.15;9.27;;;8.00;92.70;;;;;;6229932;23;20012;-83
2023/12/09 07:59:13;;;;;;;26.33;9.15;;;7.80;92.60;;;;;;6220020;23;20342;-83
2023/12/09 08:01:40;;;;;;;26.75;10.25;;;7.80;92.60;;;;;;6220802;23;20381;-83
2023/12/09 08:04:06;;;;;;;25.05;8.52;;;7.80;92.60;;;;;;6221640;23;20066;-84
2023/12/09 08:06:32;;;;;;;31.83;7.90;;;7.80;92.60;;;;;;6221158;23;20020;-83
2023/12/09 08:08:57;;;;;;;23.67;7.25;;;7.80;92.60;;;;;;6194386;23;20047;-83
2023/12/09 08:11:23;;;;;;;26.13;8.38;;;7.80;92.50;;;;;;6219898;23;20046;-83
2023/12/09 08:13:49;;;;;;;24.45;8.88;;;7.80;92.50;;;;;;6227356;23;20042;-84
2023/12/09 08:16:14;;;;;;;18.90;7.55;;;7.80;92.50;;;;;;6230565;23;20418;-83
2023/12/09 08:18:42;;;;;;;22.65;7.85;;;7.80;92.50;;;;;;6230860;23;20066;-83
2023/12/09 08:21:07;;;;;;;25.33;8.00;;;7.80;92.50;;;;;;6205060;23;20080;-83
2023/12/09 08:23:33;;;;;;;20.55;6.95;;;7.70;92.40;;;;;;6202436;23;20337;-83
2023/12/09 08:25:59;;;;;;;26.77;9.32;;;7.80;92.50;;;;;;6200976;23;20019;-84
2023/12/09 08:28:27;;;;;;;22.25;6.88;;;7.70;92.40;;;;;;6221227;23;20016;-84
2023/12/09 08:30:53;;;;;;;19.92;6.78;;;7.70;92.40;;;;;;6225169;23;20016;-83
2023/12/09 08:33:18;;;;;;;24.45;7.25;;;7.90;92.50;;;;;;6196900;23;20012;-84
2023/12/09 08:35:44;;;;;;;24.88;7.50;;;7.70;92.40;;;;;;6197419;23;20020;-84
2023/12/09 08:38:10;;;;;;;26.52;6.80;;;7.70;92.30;;;;;;6223062;23;20008;-84
2023/12/09 08:40:35;;;;;;;21.13;6.95;;;7.70;92.30;;;;;;6195069;23;20008;-84
2023/12/09 08:43:02;;;;;;;21.17;6.53;;;7.70;92.30;;;;;;6221210;23;20016;-83
2023/12/09 08:45:31;;;;;;;19.67;6.32;;;7.70;92.30;;;;;;6221011;23;20018;-84
2023/12/09 08:47:56;;;;;;;22.85;6.38;;;7.60;92.20;;;;;;6219838;23;20012;-84
2023/12/09 08:50:22;;;;;;;17.90;6.85;;;7.60;92.20;;;;;;6194180;23;20058;-84
2023/12/09 08:52:48;;;;;;;21.15;6.22;;;7.60;92.20;;;;;;6220061;23;20040;-84
2023/12/09 08:55:13;;;;;;;22.10;7.40;;;7.60;92.20;;;;;;6194593;23;20020;-84
2023/12/09 08:57:39;;;;;;;24.45;7.70;;;7.60;92.20;;;;;;6197808;23;20012;-83
2023/12/09 09:00:08;;;;;;;19.48;7.15;;;7.60;92.20;;;;;;6222720;23;20011;-84
2023/12/09 09:02:33;;;;;;;22.08;5.63;;;7.60;92.20;;;;;;6201627;23;20016;-84
2023/12/09 09:04:59;;;;;;;20.13;5.88;;;7.60;92.20;;;;;;6197175;23;20310;-83
2023/12/09 09:07:25;;;;;;;18.33;5.45;;;7.60;92.20;;;;;;6198408;23;20027;-83
2023/12/09 09:09:50;;;;;;;20.65;6.55;;;7.50;92.20;;;;;;6224304;23;20016;-83
2023/12/09 09:12:16;;;;;;;19.88;6.40;;;7.50;92.20;;;;;;6224901;23;20035;-83
2023/12/09 09:14:41;;;;;;;20.08;5.82;;;7.50;92.20;;;;;;6223625;23;20016;-83
2023/12/09 09:17:07;;;;;;;19.85;5.60;;;7.50;92.30;;;;;;6199574;23;20004;-83
2023/12/09 09:19:35;;;;;;;15.75;4.78;;;7.50;92.30;;;;;;6200007;23;20055;-82
2023/12/09 09:22:00;;;;;;;12.93;4.47;;;7.60;92.30;;;;;;6223150;23;20020;-82
2023/12/09 09:24:26;;;;;;;19.05;5.18;;;7.60;92.30;;;;;;6197478;23;20066;-83
2023/12/09 09:26:52;;;;;;;17.33;4.80;;;8.00;92.40;;;;;;6197125;23;20485;-83
2023/12/09 09:29:17;;;;;;;17.90;5.47;;;7.60;92.30;;;;;;6195923;23;20012;-83
2023/12/09 09:31:44;;;;;;;11.80;4.20;;;7.60;92.30;;;;;;6221526;23;20020;-82
2023/12/09 09:34:10;;;;;;;18.83;4.95;;;7.60;92.30;;;;;;6222957;23;20012;-83
2023/12/09 09:36:36;;;;;;;24.33;5.38;;;7.60;92.30;;;;;;6225432;23;20012;-83
2023/12/09 09:39:01;;;;;;;15.27;4.50;;;7.60;92.30;;;;;;6205137;23;20016;-83
2023/12/09 09:41:49;;;;;;;15.95;5.35;;;7.60;92.30;;;;;;6230790;23;20012;-83
2023/12/09 09:44:21;;;;;;;18.25;5.00;;;7.60;92.30;;;;;;6228566;23;20070;-83
2023/12/09 09:46:49;;;;;;;17.50;5.57;;;7.60;92.30;;;;;;6197279;23;20016;-83
2023/12/09 09:49:19;;;;;;;17.10;5.07;;;7.70;92.30;;;;;;6222454;23;20038;-82
2023/12/09 09:51:49;;;;;;;17.33;4.70;;;7.70;92.30;;;;;;6222262;23;20446;-83
2023/12/09 09:54:23;;;;;;;12.80;4.30;;;7.70;92.50;;;;;;6196718;23;20008;-83
2023/12/09 09:56:52;;;;;;;19.63;5.55;;;7.90;92.40;;;;;;6222312;23;20044;-82
2023/12/09 09:59:18;;;;;;;10.88;3.78;;;7.70;92.30;;;;;;6223191;23;20016;-82
2023/12/09 10:01:44;;;;;;;16.50;4.13;;;7.70;92.20;;;;;;6222959;23;20057;-82
2023/12/09 10:04:11;;;;;;;15.45;3.65;;;8.20;92.30;;;;;;6196900;23;20066;-81
2023/12/09 10:06:36;;;;;;;15.38;3.95;;;7.80;92.20;;;;;;6196009;23;20467;-81
2023/12/09 10:09:03;;;;;;;23.63;4.85;;;7.80;92.10;;;;;;6196610;23;20161;-81
2023/12/09 10:11:29;;;;;;;21.70;5.32;;;7.80;92.10;;;;;;6221488;23;20357;-81
2023/12/09 10:13:55;;;;;;;14.77;4.13;;;7.80;92.10;;;;;;6220898;23;20019;-83
2023/12/09 10:16:21;;;;;;;19.98;4.38;;;7.80;92.00;;;;;;6223720;23;20005;-82
2023/12/09 10:18:47;;;;;;;18.55;3.90;;;7.90;92.00;;;;;;6225301;23;20103;-83
2023/12/09 10:21:13;;;;;;;15.65;4.97;;;7.90;91.90;;;;;;6206343;23;20012;-83
2023/12/09 10:23:40;;;;;;;21.02;3.88;;;7.90;91.80;;;;;;6195869;23;20034;-83
2023/12/09 10:26:07;;;;;;;15.05;3.92;;;7.90;91.80;;;;;;6245799;23;20024;-83
2023/12/09 10:28:33;;;;;;;19.60;4.90;;;7.90;91.70;;;;;;6221188;23;20016;-82
2023/12/09 10:31:01;;;;;;;12.48;3.42;;;7.90;91.70;;;;;;6194727;23;20084;-82
2023/12/09 10:33:30;;;;;;;14.20;3.75;;;7.90;91.60;;;;;;6222747;23;20019;-80
2023/12/09 10:36:00;;;;;;;13.98;3.78;;;7.90;91.50;;;;;;6221190;23;20008;-82
2023/12/09 10:38:29;;;;;;;14.07;3.72;;;7.90;91.50;;;;;;6222209;23;20083;-81
2023/12/09 10:40:57;;;;;;;13.48;3.40;;;7.90;91.40;;;;;;6195854;23;20127;-81
2023/12/09 10:43:25;;;;;;;15.60;3.88;;;7.90;91.40;;;;;;6224336;23;20040;-81
2023/12/09 10:45:51;;;;;;;13.07;2.83;;;7.90;91.40;;;;;;6232044;23;20042;-81
2023/12/09 10:48:17;;;;;;;11.85;3.00;;;7.90;91.30;;;;;;6232742;23;20024;-80
2023/12/09 10:50:46;;;;;;;11.80;3.53;;;7.90;91.30;;;;;;6236558;23;20016;-81
2023/12/09 10:53:11;;;;;;;12.25;3.75;;;7.90;91.20;;;;;;6241243;23;20023;-83
2023/12/09 10:55:37;;;;;;;9.98;2.97;;;7.90;91.20;;;;;;6236048;23;20008;-82
2023/12/09 10:58:06;;;;;;;11.68;3.63;;;7.80;91.20;;;;;;6213427;23;20070;-81
2023/12/09 11:00:36;;;;;;;13.23;3.45;;;7.90;91.20;;;;;;6204558;23;20008;-82
2023/12/09 11:03:02;;;;;;;8.40;2.53;;;7.90;91.20;;;;;;6199657;23;20016;-84
2023/12/09 11:05:29;;;;;;;11.38;3.13;;;7.90;91.10;;;;;;6197701;23;20483;-86
2023/12/09 11:07:57;;;;;;;12.73;3.63;;;7.90;91.30;;;;;;6206478;23;20121;-83
2023/12/09 11:10:23;;;;;;;9.93;3.20;;;7.90;91.20;;;;;;6225700;23;20012;-84
2023/12/09 11:12:49;;;;;;;15.07;3.08;;;8.20;91.20;;;;;;6220424;23;20302;-84
2023/12/09 11:15:15;;;;;;;12.25;3.22;;;7.90;91.20;;;;;;6219861;23;20016;-84
2023/12/09 11:37:05;;;;;;;14.40;3.42;;;7.90;90.10;;;;;;5124817;27;1510789;-84
2023/12/09 11:39:31;;;;;;;11.10;2.90;;;8.60;90.00;;;;;;5121990;27;20506;-86
2023/12/09 11:41:57;;;;;;;16.02;3.10;;;7.90;89.90;;;;;;5119831;27;20141;-85
2023/12/09 11:44:24;;;;;;;10.10;2.47;;;8.70;90.50;;;;;;5109291;27;20478;-85
2023/12/09 11:46:50;;;;;;;15.38;3.35;;;7.90;90.50;;;;;;5130831;27;20062;-85
2023/12/09 11:49:15;;;;;;;12.63;2.50;;;7.90;90.60;;;;;;5113436;27;20031;-86
2023/12/09 11:51:41;;;;;;;12.27;3.30;;;8.30;90.90;;;;;;5130413;27;20081;-84
2023/12/09 11:54:08;;;;;;;14.98;3.10;;;7.90;90.90;;;;;;5109766;27;20036;-84
2023/12/09 11:56:35;;;;;;;8.30;2.60;;;8.00;90.90;;;;;;5122400;27;20412;-84
2023/12/09 11:59:00;;;;;;;11.90;2.67;;;8.10;91.00;;;;;;5125264;27;20115;-86
2023/12/09 12:01:31;;;;;;;11.52;3.13;;;8.00;90.90;;;;;;5123801;27;20068;-85
2023/12/09 12:03:57;;;;;;;10.43;2.72;;;8.00;91.00;;;;;;5109845;27;20031;-83
2023/12/09 12:06:23;;;;;;;9.30;2.40;;;8.00;91.00;;;;;;5125698;27;20051;-82
2023/12/09 12:08:51;;;;;;;11.88;2.95;;;8.10;91.00;;;;;;5128780;27;20056;-86
2023/12/09 12:11:18;;;;;;;9.38;2.70;;;8.60;90.90;;;;;;5136416;27;20042;-83
2023/12/09 12:13:44;;;;;;;11.90;3.03;;;8.10;90.80;;;;;;5150446;27;20095;-85
2023/12/09 12:16:11;;;;;;;11.05;2.78;;;8.10;90.80;;;;;;5125909;27;20091;-84
2023/12/09 12:18:37;;;;;;;10.75;2.78;;;8.10;90.80;;;;;;5129394;27;20046;-83
2023/12/09 12:21:03;;;;;;;12.45;3.20;;;8.10;90.70;;;;;;5112401;27;20027;-85
2023/12/09 12:23:29;;;;;;;10.02;2.88;;;8.10;90.70;;;;;;5107636;27;20038;-84
2023/12/09 12:25:55;;;;;;;8.82;2.83;;;8.10;90.70;;;;;;5092060;27;20039;-83
2023/12/09 12:28:22;;;;;;;12.82;3.55;;;8.10;90.60;;;;;;5107728;27;20055;-83
2023/12/09 12:30:55;;;;;;;11.55;3.05;;;8.20;90.50;;;;;;5105378;27;20061;-84
2023/12/09 12:33:22;;;;;;;7.95;2.63;;;8.20;90.40;;;;;;5121118;27;20532;-84
2023/12/09 12:35:53;;;;;;;8.43;2.38;;;8.20;90.40;;;;;;5110224;27;20046;-82
2023/12/09 12:38:22;;;;;;;7.75;2.55;;;8.30;90.40;;;;;;5130158;27;20365;-82
2023/12/09 12:40:49;;;;;;;11.02;2.30;;;8.20;90.20;;;;;;5114918;27;20047;-82
2023/12/09 12:43:18;;;;;;;6.47;2.28;;;8.30;90.20;;;;;;5128773;27;20057;-82
2023/12/09 12:45:48;;;;;;;11.60;2.58;;;8.30;90.20;;;;;;5114525;27;20051;-83
2023/12/09 12:48:14;;;;;;;9.15;2.67;;;8.30;90.20;;;;;;5112812;27;20416;-82
2023/12/09 12:50:41;;;;;;;9.52;2.78;;;8.30;90.20;;;;;;5120241;27;20035;-82
2023/12/09 12:53:10;;;;;;;10.50;2.75;;;8.20;90.10;;;;;;5096121;27;20045;-82
2023/12/09 12:55:36;;;;;;;14.90;3.35;;;8.30;90.10;;;;;;5096239;27;20041;-83